createdAt,value
2024-05-09T00:00:45.698Z,17.10
2024-05-09T00:03:15.787Z,17.13
2024-05-09T00:05:45.635Z,15.63
2024-05-09T00:08:12.928Z,17.40
2024-05-09T00:10:40.982Z,17.03
2024-05-09T00:13:10.201Z,18.47
2024-05-09T00:15:37.946Z,18.03
2024-05-09T00:18:07.164Z,16.50
2024-05-09T00:20:38.998Z,17.43
2024-05-09T00:23:12.760Z,18.30
2024-05-09T00:25:42.258Z,18.07
2024-05-09T00:28:09.442Z,19.50
2024-05-09T00:30:37.360Z,21.27
2024-05-09T00:33:09.408Z,19.30
2024-05-09T00:35:38.062Z,17.43
2024-05-09T00:38:05.619Z,18.40
2024-05-09T00:40:40.422Z,19.20
2024-05-09T00:43:11.419Z,18.07
2024-05-09T00:45:38.926Z,18.70
2024-05-09T00:48:08.655Z,18.57
2024-05-09T00:50:39.547Z,18.97
2024-05-09T00:53:08.202Z,19.17
2024-05-09T00:55:36.966Z,19.77
2024-05-09T00:58:07.155Z,19.27
2024-05-09T01:00:39.105Z,20.43
2024-05-09T01:03:10.539Z,20.00
2024-05-09T01:05:39.886Z,19.37
2024-05-09T01:08:07.704Z,19.57
2024-05-09T01:10:36.135Z,22.47
2024-05-09T01:13:04.759Z,20.83
2024-05-09T01:15:31.900Z,20.70
2024-05-09T01:18:01.403Z,21.70
2024-05-09T01:20:39.122Z,21.30
2024-05-09T01:23:10.057Z,21.17
2024-05-09T01:25:37.856Z,19.97
2024-05-09T01:28:05.318Z,21.37
2024-05-09T01:30:35.607Z,20.83
2024-05-09T01:33:06.812Z,21.43
2024-05-09T01:35:35.536Z,20.60
2024-05-09T01:38:02.727Z,21.73
2024-05-09T01:40:37.141Z,18.33
2024-05-09T01:43:10.949Z,19.93
2024-05-09T01:45:39.659Z,20.97
2024-05-09T01:48:08.001Z,22.17
2024-05-09T01:50:39.838Z,21.70
2024-05-09T01:53:14.293Z,19.93
2024-05-09T01:55:42.140Z,20.13
2024-05-09T01:58:09.598Z,21.03
2024-05-09T02:00:40.813Z,20.77
2024-05-09T02:03:13.680Z,21.70
2024-05-09T02:05:46.744Z,21.03
2024-05-09T02:08:21.559Z,21.50
2024-05-09T02:10:50.028Z,21.03
2024-05-09T02:13:17.525Z,22.07
2024-05-09T02:15:44.858Z,22.67
2024-05-09T02:18:12.598Z,20.93
2024-05-09T02:20:41.324Z,20.97
2024-05-09T02:23:09.304Z,21.13
2024-05-09T02:25:36.437Z,22.00
2024-05-09T02:28:03.747Z,22.30
2024-05-09T02:30:38.797Z,22.37
2024-05-09T02:33:10.174Z,21.27
2024-05-09T02:35:39.072Z,21.77
2024-05-09T02:38:06.194Z,21.70
2024-05-09T02:40:37.242Z,21.73
2024-05-09T02:43:07.347Z,22.90
2024-05-09T02:45:34.591Z,22.17
2024-05-09T02:48:02.195Z,23.77
2024-05-09T02:50:36.727Z,23.87
2024-05-09T02:53:06.944Z,22.80
2024-05-09T02:55:34.275Z,22.43
2024-05-09T02:58:01.251Z,22.20
2024-05-09T03:00:36.788Z,24.63
2024-05-09T03:03:08.791Z,23.93
2024-05-09T03:05:37.305Z,22.77
2024-05-09T03:08:04.908Z,23.13
2024-05-09T03:10:36.207Z,23.00
2024-05-09T03:13:14.920Z,23.87
2024-05-09T03:15:43.709Z,23.13
2024-05-09T03:18:11.570Z,21.13
2024-05-09T03:20:39.390Z,24.00
2024-05-09T03:23:09.318Z,24.00
2024-05-09T03:25:37.618Z,24.13
2024-05-09T03:28:04.807Z,22.03
2024-05-09T03:30:39.860Z,23.10
2024-05-09T03:33:18.796Z,25.53
2024-05-09T03:35:47.665Z,23.73
2024-05-09T03:38:15.080Z,22.40
2024-05-09T03:40:50.235Z,24.17
2024-05-09T03:43:18.898Z,25.60
2024-05-09T03:45:46.702Z,25.83
2024-05-09T03:48:13.853Z,25.87
2024-05-09T03:50:41.500Z,26.23
2024-05-09T03:53:13.946Z,25.90
2024-05-09T03:55:41.232Z,25.57
2024-05-09T03:58:08.537Z,24.90
2024-05-09T04:00:39.154Z,26.23
2024-05-09T04:03:09.942Z,26.40
2024-05-09T04:05:44.201Z,26.80
2024-05-09T04:08:11.816Z,26.47
2024-05-09T04:10:39.009Z,26.80
2024-05-09T04:13:06.099Z,26.03
2024-05-09T04:15:33.216Z,25.57
2024-05-09T04:18:01.128Z,26.43
2024-05-09T04:20:36.646Z,27.97
2024-05-09T04:23:08.159Z,24.87
2024-05-09T04:25:36.023Z,24.73
2024-05-09T04:28:03.238Z,25.70
2024-05-09T04:30:36.862Z,25.73
2024-05-09T04:33:08.836Z,26.37
2024-05-09T04:35:38.256Z,26.20
2024-05-09T04:38:06.281Z,26.40
2024-05-09T04:40:36.326Z,26.53
2024-05-09T04:43:19.192Z,27.00
2024-05-09T04:45:46.616Z,26.30
2024-05-09T04:48:13.880Z,25.90
2024-05-09T04:50:41.260Z,26.40
2024-05-09T04:53:10.799Z,26.23
2024-05-09T04:55:40.462Z,25.70
2024-05-09T04:58:11.981Z,24.63
2024-05-09T05:00:40.762Z,26.73
2024-05-09T05:03:13.273Z,25.43
2024-05-09T05:05:46.173Z,26.00
2024-05-09T05:08:18.786Z,26.40
2024-05-09T05:10:47.820Z,26.77
2024-05-09T05:13:17.174Z,25.60
2024-05-09T05:15:46.096Z,26.93
2024-05-09T05:18:14.805Z,27.00
2024-05-09T05:20:42.573Z,24.93
2024-05-09T05:23:18.409Z,25.53
2024-05-09T05:25:47.964Z,25.07
2024-05-09T05:28:16.969Z,24.43
2024-05-09T05:30:44.468Z,27.00
2024-05-09T05:33:15.569Z,23.77
2024-05-09T05:35:42.946Z,23.97
2024-05-09T05:38:11.108Z,26.20
2024-05-09T05:40:39.358Z,25.77
2024-05-09T05:43:08.978Z,26.53
2024-05-09T05:45:36.400Z,25.13
2024-05-09T05:48:05.712Z,26.43
2024-05-09T05:50:36.516Z,26.30
2024-05-09T05:53:09.596Z,27.60
2024-05-09T05:55:38.757Z,26.23
2024-05-09T05:58:08.552Z,28.40
2024-05-09T06:00:38.982Z,26.53
2024-05-09T06:03:09.310Z,24.80
2024-05-09T06:05:39.812Z,25.23
2024-05-09T06:08:07.729Z,26.83
2024-05-09T06:10:38.995Z,26.13
2024-05-09T06:13:10.579Z,25.07
2024-05-09T06:15:37.747Z,26.20
2024-05-09T06:18:09.264Z,24.90
2024-05-09T06:20:38.311Z,26.10
2024-05-09T06:23:06.806Z,23.80
2024-05-09T06:25:34.791Z,24.00
2024-05-09T06:28:02.311Z,24.20
2024-05-09T06:30:37.855Z,22.50
2024-05-09T06:33:08.928Z,23.33
2024-05-09T06:35:36.983Z,22.87
2024-05-09T06:38:04.914Z,23.93
2024-05-09T06:40:38.181Z,23.30
2024-05-09T06:43:18.303Z,22.10
2024-05-09T06:45:52.478Z,22.00
2024-05-09T06:48:20.466Z,23.43
2024-05-09T06:50:47.971Z,21.50
2024-05-09T06:53:16.282Z,21.70
2024-05-09T06:55:43.518Z,21.33
2024-05-09T06:58:10.424Z,20.20
2024-05-09T07:00:40.353Z,21.00
2024-05-09T07:03:16.396Z,19.37
2024-05-09T07:05:46.784Z,22.52
2024-05-09T07:08:15.030Z,19.40
2024-05-09T07:10:42.828Z,18.33
2024-05-09T07:13:14.284Z,19.40
2024-05-09T07:15:42.253Z,17.77
2024-05-09T07:18:18.243Z,18.33
2024-05-09T07:20:47.669Z,17.70
2024-05-09T07:23:15.581Z,17.20
2024-05-09T07:25:45.711Z,13.93
2024-05-09T07:28:15.100Z,15.87
2024-05-09T07:30:43.348Z,15.80
2024-05-09T07:33:15.847Z,17.47
2024-05-09T07:35:45.869Z,13.87
2024-05-09T07:38:15.228Z,14.70
2024-05-09T07:40:43.182Z,15.30
2024-05-09T07:43:16.557Z,15.27
2024-05-09T07:45:52.213Z,12.87
2024-05-09T07:52:37.829Z,13.97
2024-05-09T07:53:47.533Z,13.37
2024-05-09T07:56:18.941Z,12.47
2024-05-09T07:58:47.322Z,13.73
2024-05-09T08:01:14.548Z,12.83
2024-05-09T08:03:41.694Z,11.03
2024-05-09T08:06:08.728Z,10.73
2024-05-09T08:08:35.608Z,10.43
2024-05-09T08:11:03.050Z,9.80
2024-05-09T08:13:30.037Z,11.33
2024-05-09T08:15:57.018Z,9.10
2024-05-09T08:18:24.212Z,9.63
2024-05-09T08:20:51.381Z,9.33
2024-05-09T08:23:20.062Z,10.13
2024-05-09T08:25:48.114Z,9.20
2024-05-09T08:28:15.681Z,8.87
2024-05-09T08:30:43.273Z,8.80
2024-05-09T08:33:10.858Z,7.97
2024-05-09T08:35:39.151Z,7.77
2024-05-09T08:38:07.306Z,8.13
2024-05-09T08:40:36.886Z,7.33
2024-05-09T08:43:11.315Z,7.27
2024-05-09T08:45:44.291Z,6.67
2024-05-09T08:48:15.131Z,6.63
2024-05-09T08:50:47.358Z,7.80
2024-05-09T08:53:28.067Z,6.70
2024-05-09T08:55:57.659Z,7.03
2024-05-09T08:58:25.698Z,7.40
2024-05-09T09:00:53.167Z,4.47
2024-05-09T09:03:24.992Z,4.50
2024-05-09T09:06:02.867Z,5.30
2024-05-09T09:08:30.024Z,9.70
2024-05-09T09:11:00.417Z,3.87
2024-05-09T09:13:28.113Z,4.97
2024-05-09T09:15:58.682Z,6.53
2024-05-09T09:18:27.206Z,5.10
2024-05-09T09:20:55.100Z,5.40
2024-05-09T09:23:22.865Z,5.80
2024-05-09T09:25:50.527Z,3.83
2024-05-09T09:28:23.383Z,3.97
2024-05-09T09:30:50.544Z,3.37
2024-05-09T09:33:20.639Z,5.43
2024-05-09T09:35:47.852Z,4.57
2024-05-09T09:38:18.306Z,4.43
2024-05-09T09:40:50.108Z,4.03
2024-05-09T09:43:25.090Z,4.47
2024-05-09T09:45:55.368Z,5.23
2024-05-09T09:48:23.596Z,5.40
2024-05-09T09:50:55.478Z,4.45
2024-05-09T09:53:26.367Z,4.57
2024-05-09T09:55:54.719Z,3.23
2024-05-09T09:58:25.014Z,7.37
2024-05-09T10:00:52.284Z,4.80
2024-05-09T10:03:19.575Z,3.67
2024-05-09T10:05:47.526Z,3.87
2024-05-09T10:08:17.915Z,4.57
2024-05-09T10:10:48.838Z,4.40
2024-05-09T10:13:16.375Z,4.30
2024-05-09T10:15:46.007Z,3.65
2024-05-09T10:18:13.560Z,4.40
2024-05-09T10:20:46.872Z,4.43
2024-05-09T10:23:34.550Z,5.10
2024-05-09T10:26:06.363Z,4.28
2024-05-09T10:28:38.021Z,4.00
2024-05-09T10:31:13.145Z,3.92
2024-05-09T10:33:50.870Z,3.90
2024-05-09T10:36:39.595Z,3.10
2024-05-09T10:39:23.903Z,3.30
2024-05-09T10:41:50.962Z,3.78
2024-05-09T10:44:18.706Z,4.10
2024-05-09T10:46:49.870Z,3.67
2024-05-09T10:49:17.073Z,5.30
2024-05-09T10:51:47.262Z,3.47
2024-05-09T10:54:26.565Z,4.80
2024-05-09T10:56:57.714Z,4.00
2024-05-09T10:59:24.742Z,3.92
2024-05-09T11:01:51.801Z,3.05
2024-05-09T11:04:19.258Z,3.58
2024-05-09T11:06:47.409Z,3.83
2024-05-09T11:09:14.895Z,2.92
2024-05-09T11:11:43.822Z,4.35
2024-05-09T11:14:14.211Z,6.15
2024-05-09T11:16:41.339Z,5.10
2024-05-09T11:19:13.885Z,5.97
2024-05-09T11:21:41.280Z,3.92
2024-05-09T11:24:11.183Z,4.80
2024-05-09T11:26:38.688Z,4.35
2024-05-09T11:29:05.616Z,4.00
2024-05-09T11:31:33.044Z,3.00
2024-05-09T11:34:00.544Z,3.00
2024-05-09T11:36:28.100Z,5.13
2024-05-09T11:38:55.087Z,4.95
2024-05-09T11:41:22.330Z,4.97
2024-05-09T11:43:49.331Z,3.53
2024-05-09T11:46:16.528Z,4.85
2024-05-09T11:48:43.791Z,6.32
2024-05-09T11:51:10.795Z,4.47
2024-05-09T11:53:37.770Z,4.75
2024-05-09T11:56:05.087Z,4.22
2024-05-09T11:58:36.893Z,4.10
2024-05-09T12:01:04.342Z,3.72
2024-05-09T12:03:31.700Z,3.10
2024-05-09T12:05:59.177Z,3.85
2024-05-09T12:08:26.787Z,6.18
2024-05-09T12:10:54.068Z,4.47
2024-05-09T12:13:21.505Z,5.05
2024-05-09T12:15:48.819Z,5.57
2024-05-09T12:18:16.062Z,3.95
2024-05-09T12:20:43.436Z,5.28
2024-05-09T12:23:11.053Z,4.32
2024-05-09T12:25:39.886Z,2.83
2024-05-09T12:28:08.503Z,5.07
2024-05-09T12:30:40.202Z,4.57
2024-05-09T12:33:13.144Z,7.28
2024-05-09T12:35:44.088Z,3.38
2024-05-09T12:38:14.312Z,6.20
2024-05-09T12:40:42.342Z,3.10
2024-05-09T12:43:10.636Z,2.92
2024-05-09T12:45:39.196Z,5.85
2024-05-09T12:48:11.877Z,3.13
2024-05-09T12:50:40.213Z,3.40
2024-05-09T12:53:07.479Z,4.00
2024-05-09T12:55:43.834Z,5.10
2024-05-09T12:58:18.856Z,3.70
2024-05-09T13:00:46.812Z,3.10
2024-05-09T13:03:14.647Z,2.42
2024-05-09T13:05:44.901Z,2.95
2024-05-09T13:08:13.677Z,2.55
2024-05-09T13:10:41.635Z,3.10
2024-05-09T13:13:13.228Z,2.88
2024-05-09T13:15:40.513Z,3.28
2024-05-09T13:18:08.519Z,3.47
2024-05-09T13:20:36.791Z,2.83
2024-05-09T13:23:06.670Z,2.63
2024-05-09T13:25:35.249Z,1.98
2024-05-09T13:28:07.489Z,2.90
2024-05-09T13:30:40.368Z,4.10
2024-05-09T13:33:13.847Z,2.50
2024-05-09T13:35:46.871Z,3.85
2024-05-09T13:38:17.920Z,2.80
2024-05-09T13:40:45.447Z,2.97
2024-05-09T13:43:12.790Z,2.78
2024-05-09T13:45:40.362Z,3.92
2024-05-09T13:48:09.999Z,2.13
2024-05-09T13:50:37.732Z,2.47
2024-05-09T13:53:07.266Z,3.28
2024-05-09T13:55:37.835Z,2.95
2024-05-09T13:58:05.688Z,3.90
2024-05-09T14:00:43.834Z,3.15
2024-05-09T14:03:16.975Z,3.08
2024-05-09T14:05:46.927Z,2.92
2024-05-09T14:08:16.158Z,2.55
2024-05-09T14:10:46.607Z,2.97
2024-05-09T14:13:15.710Z,2.45
2024-05-09T14:15:43.686Z,3.10
2024-05-09T14:18:13.480Z,3.50
2024-05-09T14:20:42.603Z,3.20
2024-05-09T14:23:10.241Z,1.70
2024-05-09T14:25:42.043Z,4.38
2024-05-09T14:28:11.184Z,1.92
2024-05-09T14:30:39.308Z,4.03
2024-05-09T14:33:08.299Z,2.78
2024-05-09T14:35:37.958Z,2.95
2024-05-09T14:38:07.487Z,3.22
2024-05-09T14:40:41.440Z,2.05
2024-05-09T14:43:15.301Z,2.38
2024-05-09T14:45:45.689Z,2.42
2024-05-09T14:48:15.370Z,4.00
2024-05-09T14:50:43.206Z,2.90
2024-05-09T14:53:12.061Z,4.68
2024-05-09T14:55:41.694Z,3.53
2024-05-09T14:58:11.319Z,4.97
2024-05-09T15:00:47.925Z,3.97
2024-05-09T15:03:19.711Z,3.72
2024-05-09T15:05:48.159Z,3.20
2024-05-09T15:08:17.976Z,2.40
2024-05-09T15:10:45.490Z,2.30
2024-05-09T15:13:16.930Z,2.65
2024-05-09T15:15:44.912Z,3.97
2024-05-09T15:18:13.658Z,2.10
2024-05-09T15:20:41.501Z,3.33
2024-05-09T15:23:08.521Z,4.13
2024-05-09T15:25:36.761Z,2.03
2024-05-09T15:28:05.036Z,2.00
2024-05-09T15:30:33.791Z,4.50
2024-05-09T15:33:04.075Z,4.55
2024-05-09T15:35:31.516Z,4.60
2024-05-09T15:37:58.638Z,2.00
2024-05-09T15:40:35.456Z,4.10
2024-05-09T15:43:07.273Z,3.92
2024-05-09T15:45:34.830Z,3.30
2024-05-09T15:48:02.566Z,4.20
2024-05-09T15:50:37.044Z,4.88
2024-05-09T15:53:08.552Z,3.33
2024-05-09T15:55:36.433Z,4.20
2024-05-09T15:58:04.640Z,3.67
2024-05-09T16:00:38.126Z,3.58
2024-05-09T16:03:13.708Z,3.95
2024-05-09T16:05:48.398Z,4.00
2024-05-09T16:08:16.243Z,4.53
2024-05-09T16:10:46.024Z,5.18
2024-05-09T16:13:14.888Z,3.47
2024-05-09T16:15:46.396Z,3.92
2024-05-09T16:18:13.914Z,4.50
2024-05-09T16:20:42.573Z,3.85
2024-05-09T16:23:11.227Z,6.72
2024-05-09T16:25:39.061Z,5.88
2024-05-09T16:28:09.892Z,3.50
2024-05-09T16:30:39.117Z,3.63
2024-05-09T16:33:07.011Z,4.15
2024-05-09T16:35:35.084Z,4.72
2024-05-09T16:38:03.187Z,4.05
2024-05-09T16:40:37.433Z,4.30
2024-05-09T16:43:08.088Z,4.50
2024-05-09T16:45:35.441Z,4.43
2024-05-09T16:48:03.231Z,3.33
2024-05-09T16:50:34.084Z,3.38
2024-05-09T16:53:03.982Z,2.55
2024-05-09T16:55:31.635Z,3.92
2024-05-09T16:57:58.957Z,3.28
2024-05-09T17:00:36.071Z,3.00
2024-05-09T17:03:09.742Z,4.97
2024-05-09T17:05:37.508Z,3.20
2024-05-09T17:08:05.279Z,4.10
2024-05-09T17:10:34.396Z,2.72
2024-05-09T17:13:07.072Z,2.97
2024-05-09T17:15:35.944Z,2.60
2024-05-09T17:18:04.255Z,4.07
2024-05-09T17:20:34.750Z,6.22
2024-05-09T17:23:06.276Z,3.38
2024-05-09T17:25:33.933Z,3.13
2024-05-09T17:28:06.902Z,2.95
2024-05-09T17:30:42.805Z,2.63
2024-05-09T17:33:11.751Z,3.78
2024-05-09T17:35:40.057Z,2.53
2024-05-09T17:38:07.396Z,3.67
2024-05-09T17:40:36.983Z,4.25
2024-05-09T17:43:08.000Z,5.88
2024-05-09T17:45:41.194Z,4.38
2024-05-09T17:48:10.936Z,4.47
2024-05-09T17:50:39.663Z,2.92
2024-05-09T17:53:07.282Z,2.80
2024-05-09T17:55:35.005Z,3.40
2024-05-09T17:58:02.677Z,3.35
2024-05-09T18:00:37.577Z,4.13
2024-05-09T18:03:08.569Z,5.18
2024-05-09T18:05:37.050Z,3.75
2024-05-09T18:08:05.608Z,3.65
2024-05-09T18:10:37.002Z,2.63
2024-05-09T18:13:07.299Z,4.80
2024-05-09T18:15:34.787Z,3.28
2024-05-09T18:18:03.271Z,3.35
2024-05-09T18:20:39.887Z,3.95
2024-05-09T18:23:11.719Z,4.43
2024-05-09T18:25:39.057Z,7.43
2024-05-09T18:28:07.031Z,2.90
2024-05-09T18:30:36.435Z,5.22
2024-05-09T18:33:06.676Z,5.20
2024-05-09T18:35:35.070Z,5.65
2024-05-09T18:38:02.232Z,2.50
2024-05-09T18:40:34.370Z,4.47
2024-05-09T18:43:06.670Z,5.10
2024-05-09T18:45:35.752Z,4.10
2024-05-09T18:48:05.629Z,4.47
2024-05-09T18:50:37.515Z,3.75
2024-05-09T18:53:07.507Z,4.35
2024-05-09T18:55:34.947Z,4.40
2024-05-09T18:58:02.268Z,6.47
2024-05-09T19:00:35.746Z,4.20
2024-05-09T19:03:09.678Z,5.90
2024-05-09T19:05:39.168Z,4.55
2024-05-09T19:08:07.675Z,2.83
2024-05-09T19:10:36.371Z,5.47
2024-05-09T19:13:08.624Z,3.90
2024-05-09T19:15:39.458Z,4.93
2024-05-09T19:18:07.551Z,5.55
2024-05-09T19:20:36.322Z,4.55
2024-05-09T19:23:06.044Z,4.60
2024-05-09T19:25:34.482Z,6.47
2024-05-09T19:28:01.748Z,3.70
2024-05-09T19:30:37.135Z,3.63
2024-05-09T19:33:08.761Z,4.75
2024-05-09T19:35:36.202Z,5.35
2024-05-09T19:38:03.526Z,6.47
2024-05-09T19:40:33.027Z,4.18
2024-05-09T19:43:02.848Z,5.10
2024-05-09T19:45:30.742Z,6.68
2024-05-09T19:47:57.912Z,5.00
2024-05-09T19:50:36.014Z,5.65
2024-05-09T19:53:08.842Z,7.47
2024-05-09T19:55:35.870Z,4.97
2024-05-09T19:58:08.891Z,5.47
2024-05-09T20:00:39.883Z,4.80
2024-05-09T20:03:09.876Z,5.03
2024-05-09T20:05:37.974Z,4.97
2024-05-09T20:08:06.071Z,5.43
2024-05-09T20:10:35.369Z,4.40
2024-05-09T20:13:05.196Z,5.83
2024-05-09T20:15:35.215Z,4.53
2024-05-09T20:18:02.725Z,3.93
2024-05-09T20:20:37.349Z,5.90
2024-05-09T20:23:08.667Z,5.40
2024-05-09T20:25:35.837Z,5.23
2024-05-09T20:28:04.534Z,6.87
2024-05-09T20:30:34.240Z,4.80
2024-05-09T20:33:04.569Z,4.63
2024-05-09T20:35:33.209Z,8.20
2024-05-09T20:38:01.641Z,4.20
2024-05-09T20:40:33.877Z,7.27
2024-05-09T20:43:04.784Z,6.43
2024-05-09T20:45:32.165Z,5.87
2024-05-09T20:47:59.695Z,7.20
2024-05-09T20:50:36.034Z,4.70
2024-05-09T20:53:09.924Z,4.97
2024-05-09T20:55:37.009Z,6.73
2024-05-09T20:58:04.425Z,5.53
2024-05-09T21:00:39.890Z,4.87
2024-05-09T21:03:11.070Z,7.00
2024-05-09T21:05:39.102Z,8.60
2024-05-09T21:08:06.904Z,8.13
2024-05-09T21:10:35.983Z,6.00
2024-05-09T21:13:04.020Z,5.73
2024-05-09T21:15:32.082Z,6.77
2024-05-09T21:17:59.642Z,5.60
2024-05-09T21:22:57.978Z,6.13
2024-05-09T21:25:25.172Z,7.63
2024-05-09T21:27:52.471Z,7.73
2024-05-09T21:30:31.251Z,8.40
2024-05-09T21:33:06.124Z,7.63
2024-05-09T21:35:33.169Z,7.93
2024-05-09T21:38:00.088Z,9.17
2024-05-09T21:40:33.820Z,7.57
2024-05-09T21:43:03.202Z,8.23
2024-05-09T21:45:30.347Z,9.37
2024-05-09T21:47:57.511Z,8.80
2024-05-09T21:50:32.212Z,9.67
2024-05-09T21:53:06.665Z,9.97
2024-05-09T21:55:33.977Z,10.20
2024-05-09T21:58:01.194Z,8.37
2024-05-09T22:00:35.499Z,9.37
2024-05-09T22:03:10.282Z,9.37
2024-05-09T22:05:41.872Z,10.77
2024-05-09T22:08:09.355Z,9.80
2024-05-09T22:10:37.092Z,10.80
2024-05-09T22:13:06.182Z,8.60
2024-05-09T22:15:38.970Z,7.97
2024-05-09T22:18:08.469Z,8.03
2024-05-09T22:20:38.917Z,8.93
2024-05-09T22:23:07.686Z,8.80
2024-05-09T22:25:35.696Z,9.73
2024-05-09T22:28:03.546Z,11.80
2024-05-09T22:30:36.673Z,10.97
2024-05-09T22:33:11.070Z,10.83
2024-05-09T22:35:39.933Z,10.80
2024-05-09T22:38:07.083Z,9.97
2024-05-09T22:40:44.798Z,11.87
2024-05-09T22:43:21.097Z,12.40
2024-05-09T22:45:50.243Z,11.93
2024-05-09T22:48:18.227Z,12.33
2024-05-09T22:50:45.228Z,12.27
2024-05-09T22:53:14.656Z,13.23
2024-05-09T22:55:43.727Z,12.03
2024-05-09T22:58:11.096Z,13.60
2024-05-09T23:00:38.356Z,13.70
2024-05-09T23:03:06.227Z,16.53
2024-05-09T23:05:33.346Z,19.40
2024-05-09T23:08:03.487Z,18.03
2024-05-09T23:10:36.109Z,17.47
2024-05-09T23:13:06.484Z,16.70
2024-05-09T23:15:34.003Z,14.43
2024-05-09T23:18:01.207Z,15.20
2024-05-09T23:20:36.246Z,16.70
2024-05-09T23:23:06.938Z,15.63
2024-05-09T23:25:34.250Z,16.70
2024-05-09T23:28:01.485Z,17.07
2024-05-09T23:30:36.352Z,19.33
2024-05-09T23:33:06.843Z,19.17
2024-05-09T23:35:34.306Z,17.93
2024-05-09T23:38:01.233Z,15.93
2024-05-09T23:40:38.320Z,17.77
2024-05-09T23:43:11.739Z,17.53
2024-05-09T23:45:39.579Z,18.23
2024-05-09T23:48:07.141Z,17.57
2024-05-09T23:50:37.642Z,20.30
2024-05-09T23:53:08.000Z,20.00
2024-05-09T23:55:36.348Z,17.40
2024-05-09T23:58:03.643Z,16.73
